Wood Lake, Nebraska
Current Conditions -  °F | °C
As of 3:15 PM on Saturday 22 Nov 2014 (Local Time) from KANW Reporting Station
Clear Clear  
Wind Chill: 64°   Ceiling: Unl
Heat Index: 64°   Visibility: 10mi
Dew Point: 21°   Wind: 17mph
Humidity: 20%   Direction: 230°SW
Pressure: 29.46"   Gusts: 23mph
Location:  42.64°N, 100.24°W
Report Text: KANW 222115Z AUTO 23015G20KT 10SM CLR 18/M06 A2946 RMK AO2 T01751060
Loading
Personal Weather Stations






























Interactive Weather Map New forecast layout! Learn more

10-Day Weather Forecast

Advertisements
Track Severe Weather on mobile